Aviation Digital Data Service (ADDS)

Output produced by METARs form (1219 UTC 23 April 2018)
found at http://aviationweather.gov/adds/metars/
 
KALB 231131Z 2312/2412 VRB03KT P6SM SKC 
     FM231700 17007KT P6SM SKC 
     FM240000 18005KT P6SM SKC